Marble Falls, TX

1:43 PM CDT on August 26, 2016 (GMT -0500)
The Waterlands | | Change Station

Elev 837 ft 30.55 °N, 98.35 °W | Updated 4 seconds ago

Scattered Clouds
Scattered Clouds
96.6 °F
Feels Like 103 °F
N
0.0
Wind Variable Wind from West
Gusts 0.0 mph

Today
High -- | Low -- °F
--% Chance of Precip.
Yesterday
High -- | Low -- °F
Precip. -- in
Pressure 30.03 in
Visibility 10.0 miles
Clouds Scattered Clouds 4500 ft
Heat Index 103 °F
Dew Point 69 °F
Humidity 41%
Rainfall 0.00 in
Snow Depth Not available.
7:06 AM 8:02 PM
Waning Crescent, 32% visible
METAR KDZB 261835Z AUTO 00000KT 10SM SCT045 32/20 A3003 RMK AO2 T03230201
Pressure 30.03 in
Visibility 10.0 miles
Clouds Scattered Clouds 4500 ft
Heat Index 103 °F
Dew Point 69 °F
Humidity 41%
Rainfall 0.00 in
Snow Depth Not available.
7:06 AM 8:02 PM
Waning Crescent, 32% visible
METAR KDZB 261835Z AUTO 00000KT 10SM SCT045 32/20 A3003 RMK AO2 T03230201

10-Day Weather Forecast

Almanac

Astronomy

Aug. 26, 2016 Rise Set
Actual Time
Civil Twilight
Nautical Twilight
Astronomical Twilight
Moon
Length of Visible Light
Length of Day
Tomorrow will be .
, % of the Moon is Illuminated

Today's Extremes

State Highs State Lows

Community

WunderPhotos

Upload Photos

1,935,175 photos uploaded!

WunderBlog® & News

Nearby

Air Quality

  Air Quality AQ Index Pollutant
Not available.

Snow Depth

Station Depth Elevation

Earthquake Activity

City Distance Mag. Time & Date
Minimum magnitude displayed is 2.5.

Coastal Water Temperatures

Place Temperature

Stations

Nearby Weather Stations

Station Location Temp. Windchill Dew Point Humidity Wind Precip. Elev Updated Type
                   

Watches & Warnings

There are currently no watches in effect.